Time;durP1;ratioP1;P1;durP2;ratioP2;P2;SDS_P1;SDS_P2;PMS_P1;PMS_P2;Temp;Humidity;BMP_temperature;BMP_pressure;BME280_temperature;BME280_humidity;BME280_pressure;Samples;Min_cycle;Max_cycle;Signal;HPM_P1;HPM_P2
2023/12/27 00:00:06;;;;;;;5.93;1.67;;;6.20;99.90;;;6.03;100.00;101587.16;5233542;28;20068;-48
2023/12/27 00:02:38;;;;;;;7.13;2.13;;;6.10;99.90;;;6.01;100.00;101587.06;5228410;28;20041;-49
2023/12/27 00:05:11;;;;;;;5.45;1.63;;;6.10;99.90;;;5.99;100.00;101588.66;5229027;28;20049;-51
2023/12/27 00:07:43;;;;;;;8.07;1.83;;;6.10;99.90;;;5.94;100.00;101577.13;5227970;28;20041;-48
2023/12/27 00:10:16;;;;;;;3.40;1.30;;;6.10;99.90;;;5.87;100.00;101585.25;5224619;28;20048;-50
2023/12/27 00:12:48;;;;;;;4.95;1.70;;;6.10;99.90;;;5.82;100.00;101587.50;5233541;28;20059;-50
2023/12/27 00:15:22;;;;;;;8.52;1.88;;;6.00;99.90;;;5.78;100.00;101589.78;5232638;28;20506;-49
2023/12/27 00:17:54;;;;;;;8.13;1.63;;;6.00;99.90;;;5.73;100.00;101587.78;5235339;28;20044;-51
2023/12/27 00:20:27;;;;;;;3.72;1.23;;;5.90;99.90;;;5.68;100.00;101591.78;5233392;28;20045;-50
2023/12/27 00:22:59;;;;;;;13.13;1.85;;;5.90;99.90;;;5.63;100.00;101597.44;5236433;28;20373;-48
2023/12/27 00:25:31;;;;;;;6.32;1.60;;;5.80;99.90;;;5.57;100.00;101595.31;5244477;28;20043;-48
2023/12/27 00:28:04;;;;;;;4.40;1.40;;;5.80;99.90;;;5.55;100.00;101588.25;5235008;28;20044;-50
2023/12/27 00:30:38;;;;;;;1.73;1.30;;;5.70;99.90;;;5.59;100.00;101598.91;5233522;28;20045;-50
2023/12/27 00:33:11;;;;;;;3.60;1.50;;;5.70;99.90;;;5.50;100.00;101590.53;5227974;28;20044;-49
2023/12/27 00:35:43;;;;;;;3.55;1.73;;;5.70;99.90;;;5.46;100.00;101580.75;5230596;28;20076;-49
2023/12/27 00:38:16;;;;;;;3.83;1.60;;;5.70;99.90;;;5.43;100.00;101581.47;5231355;28;20117;-49
2023/12/27 00:40:49;;;;;;;2.03;1.02;;;5.60;99.90;;;5.41;100.00;101585.66;5231937;28;20045;-48
2023/12/27 00:43:21;;;;;;;3.40;1.60;;;5.60;99.90;;;5.39;100.00;101581.13;5236183;28;20668;-48
2023/12/27 00:45:55;;;;;;;1.65;1.30;;;5.60;99.90;;;5.35;100.00;101582.63;5234736;28;20606;-50
2023/12/27 00:48:27;;;;;;;3.28;1.42;;;5.60;99.90;;;5.32;100.00;101577.25;5226866;28;20059;-50
2023/12/27 00:51:02;;;;;;;3.92;1.40;;;5.50;99.90;;;5.27;100.00;101568.28;5233894;28;20044;-49
2023/12/27 00:53:34;;;;;;;3.88;1.05;;;5.50;99.90;;;5.23;100.00;101561.13;5234163;28;20132;-49
2023/12/27 00:56:08;;;;;;;2.55;1.30;;;5.50;99.90;;;5.22;100.00;101567.09;5238238;28;20450;-48
2023/12/27 00:58:40;;;;;;;7.47;1.30;;;5.40;99.90;;;5.22;100.00;101561.91;5239500;28;20048;-49
2023/12/27 01:01:14;;;;;;;3.35;1.48;;;5.40;99.90;;;5.21;100.00;101562.69;5244539;28;20135;-48
2023/12/27 01:03:46;;;;;;;2.60;1.02;;;5.40;99.90;;;5.19;100.00;101569.44;5238429;28;20049;-48
2023/12/27 01:06:19;;;;;;;5.07;1.05;;;5.40;99.90;;;5.15;100.00;101560.59;5237085;28;20105;-49
2023/12/27 01:08:51;;;;;;;1.33;0.93;;;5.40;99.90;;;5.13;100.00;101569.91;5238446;28;20075;-48
2023/12/27 01:11:24;;;;;;;2.35;0.90;;;5.40;99.90;;;5.11;100.00;101570.63;5241788;28;20467;-48
2023/12/27 01:13:57;;;;;;;2.78;1.15;;;5.30;99.90;;;5.05;100.00;101576.25;5235119;28;20032;-49
2023/12/27 01:16:30;;;;;;;4.47;1.63;;;5.30;99.90;;;5.01;100.00;101574.22;5233317;28;20412;-48
2023/12/27 01:19:03;;;;;;;5.60;1.38;;;5.20;99.90;;;4.97;100.00;101571.34;5230179;28;20047;-49
2023/12/27 01:21:35;;;;;;;2.58;1.30;;;5.20;99.90;;;4.93;100.00;101565.06;5234551;28;20048;-50
2023/12/27 01:24:08;;;;;;;5.10;1.42;;;5.20;99.90;;;4.89;100.00;101565.66;5240823;28;20049;-49
2023/12/27 01:26:40;;;;;;;2.72;1.08;;;5.10;99.90;;;4.86;100.00;101562.84;5239350;28;20714;-48
2023/12/27 01:29:12;;;;;;;3.75;1.38;;;5.10;99.90;;;4.85;100.00;101555.88;5236562;28;20041;-48
2023/12/27 01:31:46;;;;;;;1.75;1.23;;;5.10;99.90;;;4.84;100.00;101556.69;5236733;28;20048;-50
2023/12/27 01:34:19;;;;;;;5.57;1.70;;;5.10;99.90;;;4.86;100.00;101557.69;5237036;28;20070;-49
2023/12/27 01:36:51;;;;;;;6.80;1.17;;;5.10;99.90;;;4.89;100.00;101555.31;5239542;28;20056;-50
2023/12/27 01:39:23;;;;;;;3.00;1.13;;;5.10;99.90;;;4.90;100.00;101539.03;5231566;28;20068;-48
2023/12/27 01:41:57;;;;;;;2.65;0.90;;;5.10;99.90;;;4.95;100.00;101537.63;5234306;28;20052;-48
2023/12/27 01:44:29;;;;;;;2.80;1.00;;;5.20;99.90;;;5.01;100.00;101540.63;5235253;28;20032;-48
2023/12/27 01:47:05;;;;;;;2.45;0.90;;;5.20;99.90;;;5.06;100.00;101543.56;5235161;28;20056;-48
2023/12/27 01:49:37;;;;;;;4.15;1.30;;;5.20;99.90;;;5.09;100.00;101544.66;5230076;28;20087;-48
2023/12/27 01:52:11;;;;;;;1.88;1.42;;;5.30;99.90;;;5.13;100.00;101550.94;5229159;28;20070;-50
2023/12/27 01:54:44;;;;;;;2.45;1.33;;;5.30;99.90;;;5.16;100.00;101554.63;5239680;28;20044;-48
2023/12/27 01:57:16;;;;;;;2.75;1.20;;;5.40;99.90;;;5.17;100.00;101553.84;5236952;28;20053;-51
2023/12/27 01:59:49;;;;;;;2.05;1.25;;;5.40;99.90;;;5.22;100.00;101553.28;5237578;28;20049;-49
2023/12/27 02:02:24;;;;;;;3.35;1.10;;;5.40;99.90;;;5.27;100.00;101557.03;5239010;28;20773;-49
2023/12/27 02:04:57;;;;;;;6.47;1.80;;;5.50;99.90;;;5.30;100.00;101554.69;5241329;28;20040;-49
2023/12/27 02:07:29;;;;;;;2.28;0.88;;;5.50;99.90;;;5.31;100.00;101553.88;5232955;28;20495;-48
2023/12/27 02:10:02;;;;;;;3.80;1.40;;;5.50;99.90;;;5.33;100.00;101557.44;5235707;28;20432;-48
2023/12/27 02:12:35;;;;;;;1.38;1.20;;;5.50;99.90;;;5.35;100.00;101550.72;5237676;28;20503;-50
2023/12/27 02:15:08;;;;;;;1.75;1.20;;;5.60;99.90;;;5.37;100.00;101551.72;5231109;28;20048;-49
2023/12/27 02:17:42;;;;;;;4.88;1.35;;;5.60;99.90;;;5.39;100.00;101544.94;5246616;28;20052;-50
2023/12/27 02:20:16;;;;;;;2.95;1.52;;;5.60;99.90;;;5.39;100.00;101548.41;5233550;28;20462;-48
2023/12/27 02:22:51;;;;;;;5.72;1.48;;;5.60;99.90;;;5.39;100.00;101552.69;5231264;28;20045;-48
2023/12/27 02:25:25;;;;;;;5.10;1.67;;;5.60;99.90;;;5.37;100.00;101554.28;5233492;28;20064;-48
2023/12/27 02:27:58;;;;;;;4.70;1.65;;;5.60;99.90;;;5.33;100.00;101558.34;5238935;28;20102;-49
2023/12/27 02:30:33;;;;;;;3.33;1.33;;;5.50;99.90;;;5.33;100.00;101552.28;5226664;28;20056;-48
2023/12/27 02:33:05;;;;;;;;;;;5.50;99.90;;;5.31;100.00;101547.00;5232495;28;20098;-50
2023/12/27 02:35:38;;;;;;;1.10;1.00;;;5.50;99.90;;;5.29;100.00;101550.31;5242397;28;19920;-48
2023/12/27 02:38:11;;;;;;;1.80;0.90;;;5.50;99.90;;;5.29;100.00;101546.03;5234124;28;20462;-49
2023/12/27 02:40:45;;;;;;;5.70;1.33;;;5.50;99.90;;;5.32;100.00;101550.50;5242361;28;20048;-50
2023/12/27 02:43:17;;;;;;;2.40;1.17;;;5.50;99.90;;;5.36;100.00;101542.16;5232355;28;20411;-49
2023/12/27 02:45:49;;;;;;;5.55;1.05;;;5.50;99.90;;;5.39;100.00;101539.78;5235930;28;20580;-49
2023/12/27 02:48:22;;;;;;;2.63;1.35;;;5.60;99.90;;;5.44;100.00;101530.63;5235053;28;20107;-49
2023/12/27 02:50:54;;;;;;;7.28;1.98;;;5.60;99.90;;;5.49;100.00;101528.38;5233389;28;20053;-49
2023/12/27 02:53:27;;;;;;;4.80;1.13;;;5.70;99.90;;;5.51;100.00;101530.25;5225247;28;20037;-50
2023/12/27 02:56:00;;;;;;;5.28;1.63;;;5.70;99.90;;;5.50;100.00;101519.81;5233882;28;20045;-49
2023/12/27 02:58:33;;;;;;;4.07;1.58;;;5.70;99.90;;;5.49;100.00;101521.50;5231308;28;20071;-49
2023/12/27 03:01:05;;;;;;;2.78;1.17;;;5.70;99.90;;;5.49;100.00;101513.75;5232833;28;20047;-48
2023/12/27 03:03:38;;;;;;;2.05;1.23;;;5.70;99.90;;;5.48;100.00;101516.19;5232946;28;20044;-49
2023/12/27 03:06:10;;;;;;;1.42;1.15;;;5.70;99.90;;;5.45;100.00;101506.56;5236033;28;20037;-49
2023/12/27 03:08:43;;;;;;;3.03;0.95;;;5.70;99.90;;;5.44;100.00;101509.94;5239951;28;20049;-49
2023/12/27 03:11:16;;;;;;;4.43;1.02;;;5.70;99.90;;;5.41;100.00;101504.56;5236518;28;20052;-49
2023/12/27 03:13:49;;;;;;;3.95;1.35;;;5.60;99.90;;;5.37;100.00;101512.94;5241269;28;20047;-50
2023/12/27 03:16:21;;;;;;;3.35;1.27;;;5.60;99.90;;;5.32;100.00;101501.38;5241875;28;20063;-48
2023/12/27 03:18:54;;;;;;;1.88;1.10;;;5.50;99.90;;;5.25;100.00;101496.59;5236329;28;20048;-49
2023/12/27 03:21:26;;;;;;;3.65;1.48;;;5.50;99.90;;;5.20;100.00;101500.53;5236268;28;20052;-48
2023/12/27 03:23:58;;;;;;;3.38;1.27;;;5.40;99.90;;;5.16;100.00;101490.00;5244134;28;20051;-48
2023/12/27 03:26:32;;;;;;;3.90;1.20;;;5.40;99.90;;;5.13;100.00;101487.22;5254898;28;20476;-48
2023/12/27 03:29:04;;;;;;;4.13;1.50;;;5.40;99.90;;;5.10;100.00;101492.19;5243275;28;20043;-50
2023/12/27 03:31:37;;;;;;;6.65;1.27;;;5.30;99.90;;;5.07;100.00;101494.53;5239041;28;20057;-48
2023/12/27 03:34:09;;;;;;;3.17;1.10;;;5.30;99.90;;;5.06;100.00;101486.69;5250868;28;20568;-47
2023/12/27 03:36:42;;;;;;;6.78;1.55;;;5.30;99.90;;;5.06;100.00;101484.09;5247098;28;20041;-49
2023/12/27 03:39:14;;;;;;;5.15;1.40;;;5.30;99.90;;;5.05;100.00;101470.28;5240613;28;20045;-48
2023/12/27 03:41:48;;;;;;;3.65;1.08;;;5.30;99.90;;;5.05;100.00;101470.28;5251140;28;20048;-49
2023/12/27 03:44:20;;;;;;;2.67;1.30;;;5.30;99.90;;;5.08;100.00;101467.91;5234990;28;20090;-50
2023/12/27 03:46:52;;;;;;;5.53;1.63;;;5.30;99.90;;;5.08;100.00;101464.44;5238441;28;20071;-49
2023/12/27 03:49:26;;;;;;;5.88;1.85;;;5.30;99.90;;;5.10;100.00;101471.50;5225939;28;20148;-49
2023/12/27 03:51:58;;;;;;;3.38;1.25;;;5.30;99.90;;;5.13;100.00;101465.63;5244172;28;20234;-48
2023/12/27 03:54:30;;;;;;;2.20;1.17;;;5.30;99.90;;;5.16;100.00;101466.75;5236449;28;20583;-50
2023/12/27 03:57:05;;;;;;;5.78;1.73;;;5.40;99.90;;;5.20;100.00;101461.78;5247214;28;20044;-49
2023/12/27 03:59:38;;;;;;;2.33;0.77;;;5.40;99.90;;;5.23;100.00;101459.41;5240050;28;20055;-48
2023/12/27 04:02:10;;;;;;;3.05;1.08;;;5.40;99.90;;;5.27;100.00;101451.94;5239845;28;20052;-50
2023/12/27 04:04:46;;;;;;;4.90;1.42;;;5.50;99.90;;;5.34;100.00;101455.81;5234032;28;20041;-49
2023/12/27 04:07:18;;;;;;;1.38;1.17;;;5.50;99.90;;;5.39;100.00;101444.09;5239352;28;20044;-49
2023/12/27 04:09:51;;;;;;;2.22;1.27;;;5.50;99.90;;;5.42;100.00;101441.72;5231665;28;20515;-50
2023/12/27 04:12:25;;;;;;;4.50;1.10;;;5.60;99.90;;;5.46;100.00;101446.28;5239655;28;20056;-49
2023/12/27 04:14:57;;;;;;;5.78;1.50;;;5.60;99.90;;;5.51;100.00;101444.91;5239575;28;20068;-52
2023/12/27 04:17:29;;;;;;;2.88;1.33;;;5.60;99.90;;;5.55;100.00;101446.91;5238272;28;20446;-49
2023/12/27 04:20:02;;;;;;;2.83;1.20;;;5.70;99.90;;;5.62;100.00;101441.34;5230410;28;20044;-48
2023/12/27 04:22:34;;;;;;;1.42;1.10;;;5.70;99.90;;;5.66;100.00;101435.53;5241090;28;20140;-49
2023/12/27 04:25:08;;;;;;;4.72;1.63;;;5.80;99.90;;;5.69;100.00;101435.75;5241247;28;20041;-50
2023/12/27 04:27:42;;;;;;;4.50;1.25;;;5.80;99.90;;;5.76;100.00;101436.16;5237174;28;20055;-48
2023/12/27 04:30:15;;;;;;;4.55;1.15;;;5.90;99.90;;;5.78;100.00;101429.38;5235339;28;20052;-50
2023/12/27 04:32:47;;;;;;;4.78;1.65;;;6.00;99.90;;;5.84;100.00;101434.94;5240087;28;20049;-50
2023/12/27 04:35:20;;;;;;;4.53;1.52;;;6.00;99.90;;;5.90;100.00;101425.00;5234781;28;20047;-48
2023/12/27 04:37:52;;;;;;;6.25;2.03;;;6.10;99.90;;;5.95;100.00;101423.63;5253318;28;20062;-51
2023/12/27 04:40:28;;;;;;;6.50;1.77;;;6.10;99.90;;;5.98;100.00;101416.03;5234428;28;20053;-48
2023/12/27 04:43:02;;;;;;;4.50;1.42;;;6.10;99.90;;;6.03;100.00;101417.22;5239284;28;20401;-50
2023/12/27 04:45:34;;;;;;;4.65;1.38;;;6.20;99.90;;;6.04;100.00;101408.66;5238900;28;20053;-50
2023/12/27 04:48:07;;;;;;;3.50;1.63;;;6.20;99.90;;;6.08;100.00;101400.31;5234864;28;20045;-50
2023/12/27 04:50:40;;;;;;;3.28;1.15;;;6.20;99.90;;;6.12;100.00;101394.50;5236322;28;20143;-51
2023/12/27 04:53:12;;;;;;;3.85;1.48;;;6.30;99.90;;;6.17;100.00;101392.19;5238940;28;20055;-48
2023/12/27 04:55:45;;;;;;;7.25;1.45;;;6.30;99.90;;;6.21;100.00;101395.09;5252094;28;20033;-51
2023/12/27 04:58:18;;;;;;;3.17;1.33;;;6.30;99.90;;;6.27;100.00;101401.44;5236987;28;20071;-48
2023/12/27 05:00:51;;;;;;;4.45;1.13;;;6.40;99.90;;;6.31;100.00;101395.63;5239254;28;20637;-49
2023/12/27 05:03:23;;;;;;;3.90;1.38;;;6.50;99.90;;;6.34;100.00;101401.03;5227652;28;20056;-52
2023/12/27 05:05:56;;;;;;;5.22;1.73;;;6.50;99.90;;;6.37;100.00;101390.84;5234075;28;20094;-49
2023/12/27 05:08:28;;;;;;;3.00;1.23;;;6.50;99.90;;;6.42;100.00;101394.59;5236915;28;20044;-47
2023/12/27 05:11:00;;;;;;;2.17;1.45;;;6.60;99.90;;;6.45;100.00;101395.66;5242052;28;20049;-50
2023/12/27 05:13:36;;;;;;;3.33;1.42;;;6.60;99.90;;;6.48;100.00;101397.56;5230667;28;20056;-48
2023/12/27 05:16:11;;;;;;;;;;;6.60;99.90;;;6.52;100.00;101395.28;5234077;28;20043;-48
2023/12/27 05:18:46;;;;;;;2.65;1.13;;;6.60;99.90;;;6.55;100.00;101399.72;5230763;28;19932;-49
2023/12/27 05:21:20;;;;;;;2.85;1.38;;;6.70;99.90;;;6.57;100.00;101392.94;5239710;28;20399;-49
2023/12/27 05:23:52;;;;;;;9.45;1.42;;;6.70;99.90;;;6.62;100.00;101401.88;5240579;28;20121;-50
2023/12/27 05:26:25;;;;;;;5.55;1.60;;;6.70;99.90;;;6.64;100.00;101392.50;5235008;28;20037;-49
2023/12/27 05:28:58;;;;;;;3.05;1.20;;;6.70;99.90;;;6.69;100.00;101403.16;5240665;28;20102;-48
2023/12/27 05:31:31;;;;;;;2.15;1.23;;;6.80;99.90;;;6.71;100.00;101398.94;5237834;28;20044;-49
2023/12/27 05:34:03;;;;;;;7.07;1.75;;;6.80;99.90;;;6.73;100.00;101395.66;5244656;28;20161;-47
2023/12/27 05:36:36;;;;;;;2.60;1.35;;;6.80;99.90;;;6.76;100.00;101394.94;5234782;28;20279;-49
2023/12/27 05:39:08;;;;;;;6.38;1.80;;;6.90;99.90;;;6.79;100.00;101388.25;5250722;28;20561;-50
2023/12/27 05:41:40;;;;;;;6.50;1.65;;;6.90;99.90;;;6.84;100.00;101387.59;5225999;28;20523;-51
2023/12/27 05:44:14;;;;;;;3.28;1.55;;;6.90;99.90;;;6.88;100.00;101387.00;5236398;28;20525;-49
2023/12/27 05:46:46;;;;;;;4.25;1.70;;;7.00;99.90;;;6.90;100.00;101378.50;5235479;28;20048;-50
2023/12/27 05:49:19;;;;;;;4.28;1.67;;;7.00;99.90;;;6.92;100.00;101370.84;5234196;28;20044;-50
2023/12/27 05:51:52;;;;;;;4.82;1.80;;;7.00;99.90;;;6.95;100.00;101371.00;5231937;28;20048;-48
2023/12/27 05:54:26;;;;;;;4.88;2.13;;;7.10;99.90;;;7.00;100.00;101372.16;5237244;28;20496;-48
2023/12/27 05:56:58;;;;;;;4.80;1.67;;;7.10;99.90;;;7.02;100.00;101368.84;5229779;28;20448;-48
2023/12/27 05:59:32;;;;;;;6.55;1.63;;;7.10;99.90;;;7.05;100.00;101362.97;5240877;28;20136;-49
2023/12/27 06:02:06;;;;;;;5.43;1.70;;;7.20;99.90;;;7.07;100.00;101367.41;5234727;28;20048;-48
2023/12/27 06:04:38;;;;;;;12.35;2.42;;;7.20;99.90;;;7.08;100.00;101374.38;5230079;28;20049;-49
2023/12/27 06:07:12;;;;;;;7.35;2.03;;;7.20;99.90;;;7.09;100.00;101372.69;5236382;28;20706;-49
2023/12/27 06:09:44;;;;;;;3.28;2.00;;;7.30;99.90;;;7.13;100.00;101371.19;5240585;28;20396;-47
2023/12/27 06:12:16;;;;;;;5.60;2.42;;;7.30;99.90;;;7.15;100.00;101354.88;5237974;28;20047;-48
2023/12/27 06:14:50;;;;;;;5.28;3.53;;;7.30;99.90;;;7.17;100.00;101355.91;5237718;28;20044;-48
2023/12/27 06:17:22;;;;;;;9.70;2.42;;;7.40;99.90;;;7.24;100.00;101355.44;5231278;28;20048;-48
2023/12/27 06:19:55;;;;;;;4.40;2.22;;;7.40;99.90;;;7.29;100.00;101345.31;5233751;28;20055;-47
2023/12/27 06:22:27;;;;;;;4.20;2.05;;;7.40;99.90;;;7.31;100.00;101344.59;5238651;28;20044;-48
2023/12/27 06:24:59;;;;;;;12.95;3.10;;;7.50;99.90;;;7.35;100.00;101335.28;5230000;28;20048;-48
2023/12/27 06:27:32;;;;;;;4.93;3.05;;;7.50;99.90;;;7.33;100.00;101340.38;5234435;28;20060;-50
2023/12/27 06:30:08;;;;;;;6.25;1.85;;;7.50;99.90;;;7.34;100.00;101341.28;5235936;28;20577;-47
2023/12/27 06:32:41;;;;;;;4.47;1.60;;;7.60;99.90;;;7.35;100.00;101332.69;5247312;28;20077;-48
2023/12/27 06:35:13;;;;;;;6.10;1.70;;;7.60;99.90;;;7.34;100.00;101331.78;5228500;28;20041;-48
2023/12/27 06:37:46;;;;;;;6.47;2.13;;;7.60;99.90;;;7.39;100.00;101328.56;5237537;28;20068;-48
2023/12/27 06:40:18;;;;;;;12.85;2.25;;;7.60;99.90;;;7.43;100.00;101320.13;5239906;28;20051;-48
2023/12/27 06:42:50;;;;;;;7.45;2.13;;;7.60;99.90;;;7.45;100.00;101322.03;5239509;28;20112;-49
2023/12/27 06:45:24;;;;;;;6.55;1.90;;;7.60;99.90;;;7.46;100.00;101315.13;5234612;28;20132;-49
2023/12/27 06:47:56;;;;;;;4.18;1.80;;;7.70;99.90;;;7.43;100.00;101318.44;5237069;28;20049;-49
2023/12/27 06:50:29;;;;;;;3.78;1.40;;;7.70;99.90;;;7.46;100.00;101320.31;5245379;28;20049;-48
2023/12/27 06:53:01;;;;;;;2.53;1.38;;;7.70;99.90;;;7.45;100.00;101318.53;5240253;28;20507;-48
2023/12/27 06:55:34;;;;;;;9.60;1.95;;;7.70;99.90;;;7.40;100.00;101326.06;5229068;28;20041;-48
2023/12/27 06:58:06;;;;;;;4.82;1.75;;;7.70;99.90;;;7.42;100.00;101315.75;5243267;28;20158;-47
2023/12/27 07:00:41;;;;;;;6.03;1.70;;;7.70;99.90;;;7.43;100.00;101310.66;5229369;28;20051;-48
2023/12/27 07:03:13;;;;;;;3.47;1.70;;;7.70;99.90;;;7.48;100.00;101311.81;5241640;28;20076;-49
2023/12/27 07:05:46;;;;;;;5.47;2.17;;;7.70;99.90;;;7.52;100.00;101305.09;5234721;28;20044;-49
2023/12/27 07:08:18;;;;;;;3.00;1.58;;;7.70;99.90;;;7.50;100.00;101301.53;5243957;28;20446;-48
2023/12/27 07:10:50;;;;;;;3.35;1.63;;;7.70;99.90;;;7.52;100.00;101305.09;5240412;28;20049;-48
2023/12/27 07:13:23;;;;;;;6.15;1.75;;;7.70;99.90;;;7.51;100.00;101292.94;5237440;28;20051;-48
2023/12/27 07:15:57;;;;;;;2.15;1.20;;;7.70;99.90;;;7.49;100.00;101281.56;5241546;28;20044;-48
2023/12/27 07:18:30;;;;;;;2.80;1.45;;;7.70;99.90;;;7.51;100.00;101269.59;5237257;28;20048;-50
2023/12/27 07:21:03;;;;;;;5.18;1.45;;;7.70;99.90;;;7.55;100.00;101268.94;5234975;28;20055;-49
2023/12/27 07:23:35;;;;;;;3.45;1.02;;;7.70;99.90;;;7.53;100.00;101266.25;5241339;28;20040;-49
2023/12/27 07:26:12;;;;;;;7.13;1.50;;;7.70;99.90;;;7.54;100.00;101268.03;5236424;28;20495;-48
2023/12/27 07:28:45;;;;;;;7.72;1.55;;;7.80;99.90;;;7.55;100.00;101261.16;5239953;28;20049;-48
2023/12/27 07:31:19;;;;;;;5.22;1.67;;;7.80;99.90;;;7.56;100.00;101262.94;5243230;28;20036;-48
2023/12/27 07:33:51;;;;;;;6.43;1.58;;;7.80;99.90;;;7.60;100.00;101259.69;5236665;28;20047;-49
2023/12/27 07:36:24;;;;;;;4.35;1.40;;;7.80;99.90;;;7.62;100.00;101266.75;5244430;28;20043;-48
2023/12/27 07:38:56;;;;;;;6.00;1.50;;;7.80;99.90;;;7.63;100.00;101259.88;5243754;28;20048;-49
2023/12/27 07:41:29;;;;;;;4.95;1.35;;;7.90;99.90;;;7.66;100.00;101254.84;5241876;28;20060;-49
2023/12/27 07:44:01;;;;;;;4.20;1.27;;;7.80;99.90;;;7.70;100.00;101259.41;5230334;28;20053;-48
2023/12/27 07:46:35;;;;;;;9.27;1.55;;;7.90;99.90;;;7.69;100.00;101254.09;5234168;28;20045;-49
2023/12/27 07:49:08;;;;;;;2.72;1.38;;;7.90;99.90;;;7.74;100.00;101253.53;5231895;28;20163;-48
2023/12/27 07:51:40;;;;;;;2.65;1.40;;;7.90;99.90;;;7.74;100.00;101250.94;5233795;28;20044;-48
2023/12/27 07:54:13;;;;;;;1.98;0.95;;;7.90;99.90;;;7.78;100.00;101249.41;5235676;28;20408;-48
2023/12/27 07:56:45;;;;;;;3.63;1.70;;;8.00;99.90;;;7.78;100.00;101260.69;5234587;28;20041;-49
2023/12/27 07:59:17;;;;;;;2.45;1.23;;;8.00;99.90;;;7.81;100.00;101273.81;5240053;28;20047;-48
2023/12/27 08:01:51;;;;;;;3.65;1.48;;;8.00;99.90;;;7.85;100.00;101270.59;5240588;28;20044;-49
2023/12/27 08:04:24;;;;;;;4.93;1.30;;;8.00;99.90;;;7.91;100.00;101282.13;5243448;28;20048;-49
2023/12/27 08:06:56;;;;;;;5.80;1.63;;;8.00;99.90;;;7.91;100.00;101266.53;5237099;28;20060;-50
2023/12/27 08:09:29;;;;;;;5.13;1.70;;;8.10;99.90;;;7.93;100.00;101270.97;5241144;28;20139;-48
2023/12/27 08:12:02;;;;;;;2.65;1.40;;;8.10;99.90;;;7.98;100.00;101276.44;5243228;28;20044;-49
2023/12/27 08:14:35;;;;;;;4.55;1.80;;;8.10;99.90;;;8.00;100.00;101280.88;5233122;28;20046;-48
2023/12/27 08:17:08;;;;;;;2.47;1.00;;;8.10;99.90;;;8.04;100.00;101282.84;5239835;28;20132;-48
2023/12/27 08:19:41;;;;;;;4.97;1.48;;;8.10;99.90;;;8.08;100.00;101291.66;5237686;28;20048;-48
2023/12/27 08:22:13;;;;;;;3.90;1.48;;;8.20;99.90;;;8.11;100.00;101279.75;5234582;28;20049;-49
2023/12/27 08:24:46;;;;;;;9.30;1.52;;;8.20;99.90;;;8.12;100.00;101276.34;5233139;28;20393;-49
2023/12/27 08:27:18;;;;;;;5.55;1.25;;;8.30;99.90;;;8.13;100.00;101257.34;5233813;28;20527;-47
2023/12/27 08:29:50;;;;;;;3.65;1.13;;;8.30;99.90;;;8.13;100.00;101251.25;5231611;28;20069;-48
2023/12/27 08:32:24;;;;;;;5.53;1.38;;;8.30;99.90;;;8.17;100.00;101261.00;5239766;28;20499;-48
2023/12/27 08:34:56;;;;;;;3.17;1.52;;;8.30;99.90;;;8.20;100.00;101276.72;5242333;28;20040;-49
2023/12/27 08:37:29;;;;;;;4.32;1.30;;;8.30;99.90;;;8.23;100.00;101282.09;5236893;28;20404;-49
2023/12/27 08:40:01;;;;;;;3.95;1.40;;;8.30;99.90;;;8.26;100.00;101279.66;5229909;28;20135;-49
2023/12/27 08:42:34;;;;;;;2.22;1.23;;;8.40;99.90;;;8.30;100.00;101280.72;5242419;28;20051;-50
2023/12/27 08:45:08;;;;;;;2.33;1.30;;;8.40;99.90;;;8.33;100.00;101275.66;5235841;28;20584;-48
2023/12/27 08:47:43;;;;;;;4.22;1.48;;;8.40;99.90;;;8.34;100.00;101278.31;5240973;28;20055;-48
2023/12/27 08:50:16;;;;;;;2.15;1.27;;;8.50;99.90;;;8.34;100.00;101273.13;5232813;28;20053;-48
2023/12/27 08:52:48;;;;;;;2.47;1.30;;;8.50;99.90;;;8.35;100.00;101269.78;5235934;28;20427;-48
2023/12/27 08:55:20;;;;;;;2.40;1.35;;;8.50;99.90;;;8.69;100.00;101250.69;5242017;28;20471;-49
2023/12/27 08:57:53;;;;;;;4.13;1.33;;;8.70;99.90;;;8.73;100.00;101256.91;5238515;28;20049;-48
2023/12/27 09:00:26;;;;;;;2.08;1.30;;;8.80;99.90;;;8.68;100.00;101251.50;5239970;28;20426;-48
2023/12/27 09:02:59;;;;;;;4.25;1.42;;;8.80;99.90;;;8.66;100.00;101246.22;5232858;28;20575;-49
2023/12/27 09:05:32;;;;;;;1.50;1.33;;;8.80;99.90;;;8.64;100.00;101249.56;5233276;28;20049;-49
2023/12/27 09:08:05;;;;;;;2.40;1.23;;;8.80;99.90;;;8.67;100.00;101250.63;5238013;28;20074;-49
2023/12/27 09:10:37;;;;;;;5.45;1.35;;;8.80;99.90;;;8.66;100.00;101240.13;5234421;28;20065;-48
2023/12/27 09:13:11;;;;;;;4.13;1.27;;;8.80;99.90;;;8.67;100.00;101236.69;5228435;28;20752;-49
2023/12/27 09:15:43;;;;;;;3.78;1.10;;;8.80;99.90;;;8.72;100.00;101240.44;5228604;28;20472;-49
2023/12/27 09:18:17;;;;;;;2.22;1.33;;;8.80;99.90;;;8.76;100.00;101234.56;5233297;28;20083;-48
2023/12/27 09:20:50;;;;;;;4.47;1.38;;;8.90;99.90;;;8.80;100.00;101239.13;5235750;28;20411;-48
2023/12/27 09:23:22;;;;;;;2.03;1.02;;;8.90;99.90;;;8.85;100.00;101241.91;5237034;28;20067;-48
2023/12/27 09:25:55;;;;;;;5.38;1.48;;;8.90;99.90;;;9.00;100.00;101246.97;5241264;28;20040;-48
2023/12/27 09:28:27;;;;;;;2.70;1.42;;;9.00;99.90;;;9.17;100.00;101246.06;5226552;28;20136;-49
2023/12/27 09:31:01;;;;;;;2.78;1.50;;;9.20;99.90;;;9.28;100.00;101229.25;5236478;28;20412;-48
2023/12/27 09:33:35;;;;;;;1.70;1.60;;;9.30;99.90;;;9.35;100.00;101223.53;5228113;28;20036;-48
2023/12/27 09:36:08;;;;;;;1.30;0.98;;;9.50;99.90;;;9.44;100.00;101223.03;5232144;28;20045;-49
2023/12/27 09:38:40;;;;;;;3.97;1.30;;;9.60;99.90;;;9.54;100.00;101219.19;5226193;28;20419;-49
2023/12/27 09:41:14;;;;;;;4.85;1.38;;;9.60;99.90;;;9.61;100.00;101218.63;5226973;28;20061;-48
2023/12/27 09:43:48;;;;;;;2.90;1.30;;;9.70;99.90;;;9.68;100.00;101215.47;5235296;28;20052;-48
2023/12/27 09:46:21;;;;;;;1.90;1.27;;;9.80;99.90;;;9.69;100.00;101228.56;5236081;28;20590;-48
2023/12/27 09:48:55;;;;;;;2.47;0.98;;;9.80;99.90;;;9.74;100.00;101226.16;5237221;28;20101;-48
2023/12/27 09:51:29;;;;;;;2.03;1.35;;;9.80;99.90;;;9.77;100.00;101241.91;5235046;28;20037;-49
2023/12/27 09:54:02;;;;;;;3.50;1.60;;;9.90;99.90;;;9.99;100.00;101228.16;5234439;28;20056;-50
2023/12/27 09:56:35;;;;;;;2.08;1.20;;;10.00;99.90;;;10.20;100.00;101226.47;5228740;28;20044;-48
2023/12/27 09:59:12;;;;;;;1.85;1.15;;;10.20;99.90;;;10.31;100.00;101221.75;5239787;28;20064;-49
2023/12/27 10:01:51;;;;;;;1.88;1.13;;;10.40;99.90;;;10.49;100.00;101211.19;5238991;28;20044;-46
2023/12/27 10:04:33;;;;;;;4.43;1.05;;;10.60;99.90;;;10.75;100.00;101207.06;5235365;28;20049;-48
2023/12/27 10:07:07;;;;;;;2.47;1.20;;;10.80;99.90;;;10.92;100.00;101216.47;5236620;28;20056;-47
2023/12/27 10:09:40;;;;;;;1.38;1.20;;;11.00;99.90;;;11.02;100.00;101202.03;5225320;28;20435;-48
2023/12/27 10:12:13;;;;;;;3.58;1.52;;;11.10;99.90;;;10.84;100.00;101194.41;5231238;28;20053;-49
2023/12/27 10:14:46;;;;;;;3.33;1.13;;;11.00;99.90;;;10.66;100.00;101183.22;5237771;28;20052;-49
2023/12/27 10:17:19;;;;;;;1.70;1.05;;;10.90;99.90;;;10.48;100.00;101183.34;5237947;28;20041;-49
2023/12/27 10:19:53;;;;;;;1.27;1.00;;;10.70;99.90;;;10.33;100.00;101194.94;5229434;28;20064;-49
2023/12/27 10:22:25;;;;;;;1.20;0.73;;;10.50;99.90;;;10.25;100.00;101188.50;5242344;28;20426;-49
2023/12/27 10:24:58;;;;;;;1.58;0.60;;;10.40;99.90;;;10.16;100.00;101192.41;5249624;28;20044;-49
2023/12/27 10:27:31;;;;;;;2.05;0.88;;;10.30;99.90;;;10.12;100.00;101199.22;5237259;28;20044;-48
2023/12/27 10:30:04;;;;;;;0.80;0.80;;;10.20;99.90;;;10.13;100.00;101189.69;5238133;28;20047;-49
2023/12/27 10:32:37;;;;;;;0.82;0.70;;;10.20;99.90;;;10.12;100.00;101178.38;5234526;28;20136;-49
2023/12/27 10:35:11;;;;;;;4.20;0.60;;;10.20;99.90;;;10.10;100.00;101181.72;5237138;28;20052;-49
2023/12/27 10:37:44;;;;;;;2.72;0.95;;;10.20;99.90;;;10.07;100.00;101185.97;5233568;28;20045;-48
2023/12/27 10:40:21;;;;;;;1.48;0.90;;;10.20;99.90;;;10.04;100.00;101190.16;5243152;28;20147;-49